createdAt,value
2017-11-22T00:02:02.917Z,96407.23
2017-11-22T00:04:28.704Z,96413.11
2017-11-22T00:06:55.500Z,96408.43
2017-11-22T00:09:21.288Z,96404.42
2017-11-22T00:11:49.779Z,96404.34
2017-11-22T00:14:15.549Z,96405.94
2017-11-22T00:16:42.023Z,96397.27
2017-11-22T00:19:09.405Z,96395.58
2017-11-22T00:21:35.192Z,96401.97
2017-11-22T00:24:01.848Z,96392.45
2017-11-22T00:26:27.623Z,96398.45
2017-11-22T00:28:57.063Z,96387.75
2017-11-22T00:31:22.823Z,96397.23
2017-11-22T00:33:52.600Z,96387.13
2017-11-22T00:36:18.411Z,96387.84
2017-11-22T00:38:46.015Z,96379.05
2017-11-22T00:41:11.780Z,96382.47
2017-11-22T00:43:40.388Z,96382.09
2017-11-22T00:46:06.176Z,96375.44
2017-11-22T00:48:32.651Z,96382.06
2017-11-22T00:50:59.993Z,96380.64
2017-11-22T00:53:25.847Z,96383.50
2017-11-22T00:55:52.945Z,96386.96
2017-11-22T00:58:18.736Z,96383.59
2017-11-22T01:00:47.770Z,96383.73
2017-11-22T01:03:13.544Z,96387.31
2017-11-22T01:05:43.278Z,96387.61
2017-11-22T01:08:09.100Z,96385.84
2017-11-22T01:10:37.908Z,96391.19
2017-11-22T01:13:03.700Z,96381.42
2017-11-22T01:15:31.053Z,96383.32
2017-11-22T01:17:56.827Z,96383.50
2017-11-22T01:20:26.102Z,96377.55
2017-11-22T01:22:51.872Z,96380.45
2017-11-22T01:25:20.387Z,96383.46
2017-11-22T01:27:46.172Z,96383.09
2017-11-22T01:30:12.644Z,96386.19
2017-11-22T01:32:38.444Z,96392.62
2017-11-22T01:35:04.237Z,96386.13
2017-11-22T01:37:34.118Z,96392.19
2017-11-22T01:39:59.891Z,96395.04
2017-11-22T01:42:27.213Z,96391.80
2017-11-22T01:44:53.019Z,96390.45
2017-11-22T01:47:22.480Z,96390.45
2017-11-22T01:49:48.280Z,96394.06
2017-11-22T01:52:17.875Z,96395.98
2017-11-22T01:54:43.668Z,96390.02
2017-11-22T01:57:11.080Z,96395.14
2017-11-22T01:59:36.865Z,96389.50
2017-11-22T02:02:06.214Z,96386.32
2017-11-22T02:04:32.028Z,96383.60
2017-11-22T02:07:00.884Z,96382.09
2017-11-22T02:09:26.693Z,96385.86
2017-11-22T02:11:55.991Z,96369.03
2017-11-22T02:14:21.764Z,96370.45
2017-11-22T02:16:51.311Z,96369.16
2017-11-22T02:19:17.107Z,96364.81
2017-11-22T02:21:44.826Z,96366.20
2017-11-22T02:24:10.606Z,96359.94
2017-11-22T02:26:39.988Z,96356.33
2017-11-22T02:29:05.783Z,96355.52
2017-11-22T02:31:31.587Z,96355.14
2017-11-22T02:33:57.372Z,96351.90
2017-11-22T02:36:23.155Z,96351.09
2017-11-22T02:38:51.983Z,96361.53
2017-11-22T02:41:17.781Z,96358.86
2017-11-22T02:43:47.253Z,96346.61
2017-11-22T02:46:13.028Z,96352.86
2017-11-22T02:48:42.192Z,96349.09
2017-11-22T02:51:08.005Z,96340.36
2017-11-22T02:53:35.253Z,96337.69
2017-11-22T02:56:01.065Z,96332.83
2017-11-22T02:58:29.995Z,96337.67
2017-11-22T03:00:55.802Z,96328.72
2017-11-22T03:03:26.030Z,96328.66
2017-11-22T03:05:51.847Z,96326.39
2017-11-22T03:08:17.605Z,96324.06
2017-11-22T03:10:43.384Z,96320.34
2017-11-22T03:13:09.180Z,96328.83
2017-11-22T03:15:36.571Z,96312.95
2017-11-22T03:18:02.373Z,96329.25
2017-11-22T03:20:31.726Z,96330.41
2017-11-22T03:22:57.537Z,96330.59
2017-11-22T03:25:25.764Z,96328.79
2017-11-22T03:27:51.580Z,96319.59
2017-11-22T03:30:22.468Z,96321.78
2017-11-22T03:32:48.292Z,96330.59
2017-11-22T03:35:15.240Z,96321.64
2017-11-22T03:37:42.751Z,96335.94
2017-11-22T03:40:11.741Z,96333.13
2017-11-22T03:42:37.592Z,96338.27
2017-11-22T03:45:03.420Z,96338.08
2017-11-22T03:47:29.237Z,96348.47
2017-11-22T03:50:01.175Z,96346.94
2017-11-22T03:52:33.001Z,96343.80
2017-11-22T03:54:58.812Z,96343.95
2017-11-22T03:57:24.655Z,96344.09
2017-11-22T04:02:46.878Z,96326.38
2017-11-22T04:05:12.772Z,96332.34
2017-11-22T04:07:38.540Z,96341.69
2017-11-22T04:10:04.309Z,96329.00
2017-11-22T04:12:30.056Z,96329.08
2017-11-22T04:14:55.828Z,96325.03
2017-11-22T04:17:21.604Z,96329.73
2017-11-22T04:19:50.284Z,96327.06
2017-11-22T04:22:16.036Z,96328.89
2017-11-22T04:24:41.820Z,96332.33
2017-11-22T04:27:07.587Z,96336.89
2017-11-22T04:29:33.359Z,96337.99
2017-11-22T04:31:59.100Z,96340.67
2017-11-22T04:34:24.845Z,96340.47
2017-11-22T04:36:50.621Z,96335.17
2017-11-22T04:39:16.384Z,96340.81
2017-11-22T04:41:42.192Z,96337.22
2017-11-22T04:44:07.988Z,96337.13
2017-11-22T04:46:33.775Z,96337.83
2017-11-22T04:48:59.548Z,96329.20
2017-11-22T04:51:25.324Z,96328.73
2017-11-22T04:53:51.100Z,96321.53
2017-11-22T04:56:16.850Z,96316.09
2017-11-22T04:58:42.614Z,96317.88
2017-11-22T05:01:08.404Z,96312.81
2017-11-22T05:03:34.160Z,96316.78
2017-11-22T05:05:59.944Z,96320.33
2017-11-22T05:08:25.713Z,96317.58
2017-11-22T05:10:51.475Z,96321.45
2017-11-22T05:13:17.296Z,96306.51
2017-11-22T05:15:43.109Z,96302.19
2017-11-22T05:18:08.890Z,96300.41
2017-11-22T05:20:38.328Z,96290.89
2017-11-22T05:23:04.366Z,96287.94
2017-11-22T05:25:31.780Z,96277.52
2017-11-22T05:27:57.540Z,96278.91
2017-11-22T05:30:25.796Z,96271.72
2017-11-22T05:32:51.548Z,96269.89
2017-11-22T05:35:17.300Z,96265.00
2017-11-22T05:37:44.321Z,96264.52
2017-11-22T05:40:10.092Z,96256.58
2017-11-22T05:42:37.597Z,96250.33
2017-11-22T05:45:03.397Z,96245.09
2017-11-22T05:47:32.689Z,96253.20
2017-11-22T05:49:58.481Z,96249.05
2017-11-22T05:52:28.284Z,96254.26
2017-11-22T05:54:54.065Z,96252.22
2017-11-22T05:57:21.664Z,96258.08
2017-11-22T05:59:47.448Z,96259.95
2017-11-22T06:04:44.115Z,96265.43
2017-11-22T06:07:11.576Z,96269.09
2017-11-22T06:09:37.392Z,96264.73
2017-11-22T06:12:03.148Z,96268.88
2017-11-22T06:14:28.900Z,96271.72
2017-11-22T06:16:54.687Z,96266.41
2017-11-22T06:19:24.369Z,96268.88
2017-11-22T06:21:50.182Z,96270.00
2017-11-22T06:24:17.792Z,96272.91
2017-11-22T06:26:43.544Z,96275.81
2017-11-22T06:29:12.855Z,96275.76
2017-11-22T06:31:38.633Z,96280.96
2017-11-22T06:34:07.638Z,96280.20
2017-11-22T06:36:33.414Z,96282.36
2017-11-22T06:39:05.637Z,96274.05
2017-11-22T06:41:31.388Z,96268.78
2017-11-22T06:43:57.161Z,96273.24
2017-11-22T06:46:23.085Z,96270.60
2017-11-22T06:48:48.839Z,96269.78
2017-11-22T06:51:14.626Z,96267.80
2017-11-22T06:53:40.394Z,96269.25
2017-11-22T06:56:08.132Z,96266.30
2017-11-22T06:58:33.945Z,96255.84
2017-11-22T07:01:03.699Z,96252.29
2017-11-22T07:03:32.464Z,96255.03
2017-11-22T07:05:58.232Z,96253.41
2017-11-22T07:08:24.000Z,96254.16
2017-11-22T07:10:52.813Z,96255.96
2017-11-22T07:13:19.315Z,96259.63
2017-11-22T07:15:56.327Z,96257.47
2017-11-22T07:18:22.099Z,96252.16
2017-11-22T07:20:47.860Z,96250.14
2017-11-22T07:23:13.639Z,96254.09
2017-11-22T07:25:39.403Z,96252.42
2017-11-22T07:28:05.140Z,96253.70
2017-11-22T07:30:30.888Z,96258.83
2017-11-22T07:32:56.640Z,96257.64
2017-11-22T07:35:28.549Z,96254.17
2017-11-22T07:38:00.390Z,96257.91
2017-11-22T07:40:29.075Z,96254.08
2017-11-22T07:42:54.856Z,96258.98
2017-11-22T07:45:20.613Z,96256.86
2017-11-22T07:47:52.482Z,96257.02
2017-11-22T07:50:18.307Z,96251.53
2017-11-22T07:52:44.068Z,96256.66
2017-11-22T07:55:09.844Z,96252.56
2017-11-22T07:57:37.576Z,96255.50
2017-11-22T08:00:03.390Z,96252.52
2017-11-22T08:02:29.220Z,96257.07
2017-11-22T08:04:55.004Z,96245.09
2017-11-22T08:07:20.744Z,96244.15
2017-11-22T08:09:46.484Z,96235.72
2017-11-22T08:12:12.244Z,96236.95
2017-11-22T08:14:37.996Z,96235.83
2017-11-22T08:17:03.756Z,96234.43
2017-11-22T08:19:29.533Z,96233.30
2017-11-22T08:21:55.289Z,96234.65
2017-11-22T08:24:22.800Z,96226.48
2017-11-22T08:26:48.547Z,96219.39
2017-11-22T08:31:45.260Z,96212.30
2017-11-22T08:34:12.808Z,96224.70
2017-11-22T08:36:38.571Z,96212.27
2017-11-22T08:39:04.320Z,96210.49
2017-11-22T08:41:36.145Z,96219.52
2017-11-22T08:44:01.990Z,96222.77
2017-11-22T08:46:27.752Z,96227.31
2017-11-22T08:48:53.528Z,96227.91
2017-11-22T08:51:19.292Z,96229.50
2017-11-22T08:53:45.059Z,96234.73
2017-11-22T08:56:19.663Z,96237.81
2017-11-22T08:58:45.423Z,96236.31
2017-11-22T09:01:11.176Z,96234.40
2017-11-22T09:03:43.084Z,96230.39
2017-11-22T09:06:15.072Z,96222.44
2017-11-22T09:08:40.818Z,96212.03
2017-11-22T09:11:06.609Z,96218.77
2017-11-22T09:13:32.388Z,96216.25
2017-11-22T09:15:58.163Z,96221.34
2017-11-22T09:18:29.880Z,96216.23
2017-11-22T09:20:55.658Z,96219.60
2017-11-22T09:23:21.420Z,96220.27
2017-11-22T09:25:47.181Z,96223.09
2017-11-22T09:28:12.948Z,96227.00
2017-11-22T09:30:44.968Z,96230.72
2017-11-22T09:33:10.752Z,96225.92
2017-11-22T09:35:36.503Z,96225.23
2017-11-22T09:38:02.244Z,96224.75
2017-11-22T09:40:28.049Z,96226.94
2017-11-22T09:42:53.801Z,96233.77
2017-11-22T09:45:19.566Z,96231.64
2017-11-22T09:47:45.344Z,96236.26
2017-11-22T09:50:11.085Z,96233.26
2017-11-22T09:52:37.271Z,96237.32
2017-11-22T09:55:03.060Z,96233.98
2017-11-22T09:57:28.839Z,96234.06
2017-11-22T09:59:54.588Z,96232.97
2017-11-22T10:02:20.393Z,96230.97
2017-11-22T10:07:16.976Z,96232.66
2017-11-22T10:09:44.259Z,96223.22
2017-11-22T10:12:10.023Z,96219.42
2017-11-22T10:14:38.792Z,96219.86
2017-11-22T10:17:10.671Z,96214.56
2017-11-22T10:19:42.664Z,96221.84
2017-11-22T10:22:08.472Z,96219.52
2017-11-22T10:24:34.378Z,96222.75
2017-11-22T10:27:06.275Z,96217.47
2017-11-22T10:29:39.058Z,96220.91
2017-11-22T10:32:04.871Z,96211.16
2017-11-22T10:34:30.644Z,96212.39
2017-11-22T10:36:56.416Z,96209.22
2017-11-22T10:39:22.224Z,96208.31
2017-11-22T10:41:48.000Z,96199.41
2017-11-22T10:44:13.772Z,96198.70
2017-11-22T10:46:39.552Z,96195.05
2017-11-22T10:49:05.321Z,96201.56
2017-11-22T10:51:31.103Z,96203.72
2017-11-22T10:53:56.876Z,96202.41
2017-11-22T10:56:22.635Z,96204.92
2017-11-22T10:58:48.419Z,96202.88
2017-11-22T11:01:14.184Z,96200.67
2017-11-22T11:03:39.963Z,96202.95
2017-11-22T11:06:05.736Z,96195.83
2017-11-22T11:08:31.525Z,96196.92
2017-11-22T11:10:57.292Z,96192.02
2017-11-22T11:13:26.753Z,96196.01
2017-11-22T11:15:52.531Z,96195.48
2017-11-22T11:18:20.112Z,96188.60
2017-11-22T11:20:45.884Z,96193.07
2017-11-22T11:23:14.229Z,96191.11
2017-11-22T11:25:40.048Z,96187.25
2017-11-22T11:28:05.784Z,96187.25
2017-11-22T11:30:32.185Z,96182.55
2017-11-22T11:32:57.998Z,96183.13
2017-11-22T11:35:40.021Z,96177.42
2017-11-22T11:38:05.812Z,96174.97
2017-11-22T11:40:31.597Z,96177.14
2017-11-22T11:42:57.363Z,96178.30
2017-11-22T11:45:23.148Z,96177.98
2017-11-22T11:47:48.948Z,96183.56
2017-11-22T11:50:14.701Z,96182.47
2017-11-22T11:52:40.504Z,96175.20
2017-11-22T11:55:06.265Z,96180.83
2017-11-22T11:57:32.319Z,96178.84
2017-11-22T12:00:00.021Z,96176.14
2017-11-22T12:02:26.721Z,96180.55
2017-11-22T12:04:57.226Z,96174.20
2017-11-22T12:07:24.307Z,96171.48
2017-11-22T12:09:51.177Z,96171.58
2017-11-22T12:12:17.689Z,96164.69
2017-11-22T12:14:44.883Z,96155.86
2017-11-22T12:17:11.265Z,96149.17
2017-11-22T12:19:38.049Z,96154.81
2017-11-22T12:22:10.622Z,96152.81
2017-11-22T12:24:36.465Z,96151.27
2017-11-22T12:27:05.277Z,96154.14
2017-11-22T12:29:31.043Z,96153.17
2017-11-22T12:31:56.794Z,96144.26
2017-11-22T12:34:22.547Z,96148.28
2017-11-22T12:36:48.357Z,96147.27
2017-11-22T12:39:14.120Z,96141.64
2017-11-22T12:41:40.567Z,96140.95
2017-11-22T12:44:10.380Z,96146.86
2017-11-22T12:46:36.131Z,96141.30
2017-11-22T12:49:01.884Z,96145.06
2017-11-22T12:51:29.623Z,96137.28
2017-11-22T12:53:55.405Z,96130.36
2017-11-22T12:56:21.171Z,96134.40
2017-11-22T12:58:46.981Z,96133.72
2017-11-22T13:01:12.784Z,96131.36
2017-11-22T13:03:41.581Z,96128.50
2017-11-22T13:06:07.406Z,96123.30
2017-11-22T13:08:35.954Z,96122.91
2017-11-22T13:11:01.744Z,96120.48
2017-11-22T13:15:58.328Z,96119.88
2017-11-22T13:18:25.809Z,96119.88
2017-11-22T13:20:51.581Z,96114.30
2017-11-22T13:23:20.636Z,96115.74
2017-11-22T13:25:46.457Z,96114.94
2017-11-22T13:28:15.712Z,96110.58
2017-11-22T13:30:41.500Z,96119.70
2017-11-22T13:33:07.291Z,96114.58
2017-11-22T13:35:33.056Z,96115.47
2017-11-22T13:37:58.875Z,96120.45
2017-11-22T13:40:26.561Z,96116.45
2017-11-22T13:42:52.328Z,96113.58
2017-11-22T13:45:21.871Z,96112.72
2017-11-22T13:47:47.701Z,96107.66
2017-11-22T13:50:16.784Z,96109.09
2017-11-22T13:52:42.590Z,96102.38
2017-11-22T13:55:12.092Z,96103.92
2017-11-22T13:57:37.859Z,96101.31
2017-11-22T14:00:07.267Z,96100.77
2017-11-22T14:02:33.044Z,96097.39
2017-11-22T14:05:02.020Z,96092.61
2017-11-22T14:07:27.825Z,96093.75
2017-11-22T14:09:53.594Z,96091.62
2017-11-22T14:12:19.386Z,96092.80
2017-11-22T14:14:45.139Z,96092.73
2017-11-22T14:17:12.028Z,96085.41
2017-11-22T14:19:37.813Z,96076.53
2017-11-22T14:22:07.499Z,96081.42
2017-11-22T14:24:33.280Z,96082.00
2017-11-22T14:27:02.840Z,96090.64
2017-11-22T14:29:28.632Z,96092.81
2017-11-22T14:31:56.246Z,96088.69
2017-11-22T14:34:22.004Z,96088.97
2017-11-22T14:36:51.782Z,96080.16
2017-11-22T14:39:17.607Z,96088.75
2017-11-22T14:41:46.821Z,96085.59
2017-11-22T14:44:12.581Z,96091.36
2017-11-22T14:46:38.340Z,96090.75
2017-11-22T14:49:04.147Z,96085.13
2017-11-22T14:51:29.908Z,96083.84
2017-11-22T14:53:57.636Z,96087.56
2017-11-22T14:56:23.623Z,96082.53
2017-11-22T14:58:52.804Z,96076.45
2017-11-22T15:01:18.591Z,96077.44
2017-11-22T15:03:48.245Z,96081.32
2017-11-22T15:06:14.040Z,96073.10
2017-11-22T15:08:41.865Z,96077.47
2017-11-22T15:11:07.655Z,96085.87
2017-11-22T15:13:36.576Z,96075.27
2017-11-22T15:16:02.384Z,96077.38
2017-11-22T15:18:31.514Z,96070.06
2017-11-22T15:20:57.369Z,96071.39
2017-11-22T15:23:23.143Z,96076.41
2017-11-22T15:25:48.921Z,96073.80
2017-11-22T15:28:14.689Z,96085.06
2017-11-22T15:30:42.498Z,96084.95
2017-11-22T15:33:08.271Z,96089.44
2017-11-22T15:35:37.493Z,96088.32
2017-11-22T15:38:03.262Z,96088.60
2017-11-22T15:40:32.212Z,96083.72
2017-11-22T15:42:57.988Z,96076.28
2017-11-22T15:45:26.645Z,96074.91
2017-11-22T15:47:52.456Z,96081.73
2017-11-22T15:50:21.248Z,96075.66
2017-11-22T15:52:47.116Z,96084.37
2017-11-22T15:55:17.686Z,96083.69
2017-11-22T16:00:24.344Z,96088.56
2017-11-22T16:02:50.168Z,96090.23
2017-11-22T16:05:16.015Z,96085.70
2017-11-22T16:07:41.800Z,96093.30
2017-11-22T16:10:07.560Z,96087.38
2017-11-22T16:12:33.420Z,96087.70
2017-11-22T16:14:59.193Z,96092.53
2017-11-22T16:17:24.995Z,96086.14
2017-11-22T16:37:03.511Z,96071.76
2017-11-22T16:39:29.336Z,96066.95
2017-11-22T16:42:18.715Z,96068.55
2017-11-22T17:01:29.892Z,96055.85
2017-11-22T17:21:07.870Z,96060.37
2017-11-22T17:40:30.185Z,96064.97
2017-11-22T17:43:28.222Z,96059.14
2017-11-22T18:02:50.540Z,96056.00
2017-11-22T18:08:37.323Z,96044.64
2017-11-22T18:11:26.913Z,96048.03
2017-11-22T18:14:23.820Z,96039.77
2017-11-22T18:17:23.880Z,96041.32
2017-11-22T18:30:11.055Z,96042.45
2017-11-22T18:33:00.675Z,96037.63
2017-11-22T18:35:58.523Z,96044.13
2017-11-22T18:38:55.520Z,96043.22
2017-11-22T18:51:42.604Z,96024.79
2017-11-22T18:54:32.394Z,96027.39
2017-11-22T18:57:29.187Z,96025.47
2017-11-22T19:16:39.579Z,96010.17
2017-11-22T19:35:49.972Z,96004.69
2017-11-22T19:55:25.256Z,96007.30
2017-11-22T19:57:51.016Z,96002.77
2017-11-22T20:00:40.638Z,95998.39
2017-11-22T20:19:52.605Z,95993.97
2017-11-22T20:22:42.221Z,95995.84
2017-11-22T20:41:54.296Z,96000.02
2017-11-22T20:44:43.905Z,95990.03
2017-11-22T20:47:41.640Z,95987.53
2017-11-22T21:03:32.316Z,95977.15
2017-11-22T21:06:25.060Z,95974.20
2017-11-22T21:09:22.819Z,95974.04
2017-11-22T21:12:20.411Z,95979.48
2017-11-22T21:15:17.552Z,95978.44
2017-11-22T21:25:07.404Z,95967.27
2017-11-22T21:44:46.836Z,95940.86
2017-11-22T22:04:00.479Z,95940.94
2017-11-22T22:23:11.933Z,95937.31
2017-11-22T22:26:09.692Z,95940.09
2017-11-22T22:29:07.616Z,95938.14
2017-11-22T22:31:46.760Z,95943.03
2017-11-22T22:51:22.714Z,95926.28
2017-11-22T23:10:36.323Z,95928.39
2017-11-22T23:13:13.952Z,95935.84
2017-11-22T23:32:50.449Z,95935.09
2017-11-22T23:52:01.461Z,95921.61
2017-11-22T23:54:59.384Z,95920.48
2017-11-22T23:57:25.126Z,95921.09
